sensor_id;sensor_type;location;lat;lon;timestamp;P1;durP1;ratioP1;P2;durP2;ratioP2
11313;SDS011;5712;48.858;9.206;2023-09-12T00:00:04;10.27;;;8.80;;
11313;SDS011;5712;48.858;9.206;2023-09-12T00:02:31;10.90;;;9.03;;
11313;SDS011;5712;48.858;9.206;2023-09-12T00:04:58;12.83;;;9.80;;
11313;SDS011;5712;48.858;9.206;2023-09-12T00:07:25;11.90;;;9.63;;
11313;SDS011;5712;48.858;9.206;2023-09-12T00:09:51;15.50;;;9.23;;
11313;SDS011;5712;48.858;9.206;2023-09-12T00:12:17;14.27;;;9.33;;
11313;SDS011;5712;48.858;9.206;2023-09-12T00:14:50;10.57;;;9.03;;
11313;SDS011;5712;48.858;9.206;2023-09-12T00:17:17;13.13;;;9.80;;
11313;SDS011;5712;48.858;9.206;2023-09-12T00:19:43;12.13;;;8.47;;
11313;SDS011;5712;48.858;9.206;2023-09-12T00:22:10;13.37;;;9.30;;
11313;SDS011;5712;48.858;9.206;2023-09-12T00:24:36;10.33;;;8.70;;
11313;SDS011;5712;48.858;9.206;2023-09-12T00:27:04;10.70;;;9.17;;
11313;SDS011;5712;48.858;9.206;2023-09-12T00:29:30;12.03;;;8.90;;
11313;SDS011;5712;48.858;9.206;2023-09-12T00:31:58;11.27;;;9.53;;
11313;SDS011;5712;48.858;9.206;2023-09-12T00:34:25;11.47;;;9.10;;
11313;SDS011;5712;48.858;9.206;2023-09-12T00:36:51;10.50;;;8.47;;
11313;SDS011;5712;48.858;9.206;2023-09-12T00:39:18;11.43;;;8.77;;
11313;SDS011;5712;48.858;9.206;2023-09-12T00:41:44;12.13;;;8.77;;
11313;SDS011;5712;48.858;9.206;2023-09-12T00:44:11;13.33;;;9.60;;
11313;SDS011;5712;48.858;9.206;2023-09-12T00:46:37;10.53;;;9.07;;
11313;SDS011;5712;48.858;9.206;2023-09-12T00:49:05;11.33;;;9.23;;
11313;SDS011;5712;48.858;9.206;2023-09-12T00:51:34;11.30;;;8.33;;
11313;SDS011;5712;48.858;9.206;2023-09-12T00:54:01;12.33;;;8.90;;
11313;SDS011;5712;48.858;9.206;2023-09-12T00:56:28;12.03;;;9.27;;
11313;SDS011;5712;48.858;9.206;2023-09-12T00:58:55;10.83;;;8.63;;
11313;SDS011;5712;48.858;9.206;2023-09-12T01:01:22;11.43;;;9.37;;
11313;SDS011;5712;48.858;9.206;2023-09-12T01:03:49;11.93;;;9.30;;
11313;SDS011;5712;48.858;9.206;2023-09-12T01:06:17;13.70;;;9.93;;
11313;SDS011;5712;48.858;9.206;2023-09-12T01:08:45;13.40;;;9.87;;
11313;SDS011;5712;48.858;9.206;2023-09-12T01:11:12;11.43;;;9.50;;
11313;SDS011;5712;48.858;9.206;2023-09-12T01:13:39;14.80;;;10.00;;
11313;SDS011;5712;48.858;9.206;2023-09-12T01:16:06;14.83;;;9.80;;
11313;SDS011;5712;48.858;9.206;2023-09-12T01:18:32;12.23;;;9.80;;
11313;SDS011;5712;48.858;9.206;2023-09-12T01:21:04;13.37;;;9.67;;
11313;SDS011;5712;48.858;9.206;2023-09-12T01:23:49;14.03;;;10.37;;
11313;SDS011;5712;48.858;9.206;2023-09-12T01:26:34;12.80;;;10.00;;
11313;SDS011;5712;48.858;9.206;2023-09-12T01:29:12;13.67;;;10.43;;
11313;SDS011;5712;48.858;9.206;2023-09-12T01:31:42;14.77;;;10.67;;
11313;SDS011;5712;48.858;9.206;2023-09-12T01:34:11;12.67;;;10.27;;
11313;SDS011;5712;48.858;9.206;2023-09-12T01:36:39;13.50;;;10.40;;
11313;SDS011;5712;48.858;9.206;2023-09-12T01:39:05;12.90;;;9.77;;
11313;SDS011;5712;48.858;9.206;2023-09-12T01:41:34;13.97;;;10.23;;
11313;SDS011;5712;48.858;9.206;2023-09-12T01:44:05;12.83;;;9.40;;
11313;SDS011;5712;48.858;9.206;2023-09-12T01:46:36;13.13;;;9.53;;
11313;SDS011;5712;48.858;9.206;2023-09-12T01:49:05;12.73;;;9.80;;
11313;SDS011;5712;48.858;9.206;2023-09-12T01:51:33;12.07;;;9.43;;
11313;SDS011;5712;48.858;9.206;2023-09-12T01:54:00;11.37;;;9.07;;
11313;SDS011;5712;48.858;9.206;2023-09-12T01:56:27;12.83;;;9.43;;
11313;SDS011;5712;48.858;9.206;2023-09-12T01:58:54;12.83;;;9.00;;
11313;SDS011;5712;48.858;9.206;2023-09-12T02:01:22;13.87;;;9.73;;
11313;SDS011;5712;48.858;9.206;2023-09-12T02:03:53;13.50;;;9.87;;
11313;SDS011;5712;48.858;9.206;2023-09-12T02:06:19;12.20;;;9.90;;
11313;SDS011;5712;48.858;9.206;2023-09-12T02:08:46;10.90;;;9.10;;
11313;SDS011;5712;48.858;9.206;2023-09-12T02:11:12;15.00;;;9.80;;
11313;SDS011;5712;48.858;9.206;2023-09-12T02:13:39;13.30;;;10.17;;
11313;SDS011;5712;48.858;9.206;2023-09-12T02:16:05;12.40;;;9.87;;
11313;SDS011;5712;48.858;9.206;2023-09-12T02:18:32;11.70;;;9.83;;
11313;SDS011;5712;48.858;9.206;2023-09-12T02:20:59;11.67;;;8.93;;
11313;SDS011;5712;48.858;9.206;2023-09-12T02:23:26;11.30;;;8.83;;
11313;SDS011;5712;48.858;9.206;2023-09-12T02:25:53;10.47;;;8.50;;
11313;SDS011;5712;48.858;9.206;2023-09-12T02:28:19;10.30;;;8.40;;
11313;SDS011;5712;48.858;9.206;2023-09-12T02:30:45;13.03;;;9.67;;
11313;SDS011;5712;48.858;9.206;2023-09-12T02:33:12;13.07;;;9.70;;
11313;SDS011;5712;48.858;9.206;2023-09-12T02:35:38;14.53;;;10.53;;
11313;SDS011;5712;48.858;9.206;2023-09-12T02:38:06;14.07;;;10.87;;
11313;SDS011;5712;48.858;9.206;2023-09-12T02:40:33;15.37;;;11.77;;
11313;SDS011;5712;48.858;9.206;2023-09-12T02:42:59;16.43;;;11.17;;
11313;SDS011;5712;48.858;9.206;2023-09-12T02:45:26;15.10;;;11.80;;
11313;SDS011;5712;48.858;9.206;2023-09-12T02:47:52;14.57;;;10.97;;
11313;SDS011;5712;48.858;9.206;2023-09-12T02:50:19;16.37;;;11.97;;
11313;SDS011;5712;48.858;9.206;2023-09-12T02:52:45;16.53;;;10.63;;
11313;SDS011;5712;48.858;9.206;2023-09-12T02:55:13;13.53;;;10.50;;
11313;SDS011;5712;48.858;9.206;2023-09-12T02:57:39;13.77;;;9.77;;
11313;SDS011;5712;48.858;9.206;2023-09-12T03:00:06;13.47;;;9.10;;
11313;SDS011;5712;48.858;9.206;2023-09-12T03:02:34;12.67;;;8.87;;
11313;SDS011;5712;48.858;9.206;2023-09-12T03:05:00;12.53;;;8.73;;
11313;SDS011;5712;48.858;9.206;2023-09-12T03:07:28;11.97;;;8.97;;
11313;SDS011;5712;48.858;9.206;2023-09-12T03:09:55;11.90;;;8.97;;
11313;SDS011;5712;48.858;9.206;2023-09-12T03:12:23;11.37;;;8.67;;
11313;SDS011;5712;48.858;9.206;2023-09-12T03:14:50;11.37;;;8.90;;
11313;SDS011;5712;48.858;9.206;2023-09-12T03:17:16;12.17;;;9.00;;
11313;SDS011;5712;48.858;9.206;2023-09-12T03:19:43;12.93;;;9.67;;
11313;SDS011;5712;48.858;9.206;2023-09-12T03:22:09;12.47;;;10.10;;
11313;SDS011;5712;48.858;9.206;2023-09-12T03:24:35;15.77;;;9.87;;
11313;SDS011;5712;48.858;9.206;2023-09-12T03:27:02;13.43;;;9.43;;
11313;SDS011;5712;48.858;9.206;2023-09-12T03:29:30;12.93;;;9.90;;
11313;SDS011;5712;48.858;9.206;2023-09-12T03:31:57;12.73;;;10.30;;
11313;SDS011;5712;48.858;9.206;2023-09-12T03:34:23;12.83;;;9.67;;
11313;SDS011;5712;48.858;9.206;2023-09-12T03:36:50;14.07;;;10.70;;
11313;SDS011;5712;48.858;9.206;2023-09-12T03:39:16;13.80;;;10.43;;
11313;SDS011;5712;48.858;9.206;2023-09-12T03:41:43;13.17;;;9.73;;
11313;SDS011;5712;48.858;9.206;2023-09-12T03:44:09;13.10;;;10.90;;
11313;SDS011;5712;48.858;9.206;2023-09-12T03:46:37;14.50;;;10.57;;
11313;SDS011;5712;48.858;9.206;2023-09-12T03:49:03;13.00;;;10.37;;
11313;SDS011;5712;48.858;9.206;2023-09-12T03:51:30;14.13;;;10.10;;
11313;SDS011;5712;48.858;9.206;2023-09-12T03:53:56;13.20;;;9.87;;
11313;SDS011;5712;48.858;9.206;2023-09-12T03:56:23;15.80;;;10.80;;
11313;SDS011;5712;48.858;9.206;2023-09-12T03:58:49;17.30;;;10.87;;
11313;SDS011;5712;48.858;9.206;2023-09-12T04:01:16;11.83;;;10.10;;
11313;SDS011;5712;48.858;9.206;2023-09-12T04:03:44;15.53;;;10.17;;
11313;SDS011;5712;48.858;9.206;2023-09-12T04:06:12;13.27;;;9.50;;
11313;SDS011;5712;48.858;9.206;2023-09-12T04:08:39;11.47;;;8.80;;
11313;SDS011;5712;48.858;9.206;2023-09-12T04:11:05;14.23;;;9.70;;
11313;SDS011;5712;48.858;9.206;2023-09-12T04:13:33;13.03;;;9.63;;
11313;SDS011;5712;48.858;9.206;2023-09-12T04:15:59;12.77;;;9.47;;
11313;SDS011;5712;48.858;9.206;2023-09-12T04:18:26;14.10;;;9.93;;
11313;SDS011;5712;48.858;9.206;2023-09-12T04:20:53;13.73;;;10.07;;
11313;SDS011;5712;48.858;9.206;2023-09-12T04:23:22;12.83;;;9.97;;
11313;SDS011;5712;48.858;9.206;2023-09-12T04:25:48;14.53;;;10.77;;
11313;SDS011;5712;48.858;9.206;2023-09-12T04:28:15;14.83;;;10.23;;
11313;SDS011;5712;48.858;9.206;2023-09-12T04:30:41;16.17;;;11.00;;
11313;SDS011;5712;48.858;9.206;2023-09-12T04:33:08;14.27;;;10.73;;
11313;SDS011;5712;48.858;9.206;2023-09-12T04:35:35;12.67;;;10.50;;
11313;SDS011;5712;48.858;9.206;2023-09-12T04:38:03;13.17;;;10.07;;
11313;SDS011;5712;48.858;9.206;2023-09-12T04:40:29;14.50;;;10.53;;
11313;SDS011;5712;48.858;9.206;2023-09-12T04:42:56;13.77;;;10.53;;
11313;SDS011;5712;48.858;9.206;2023-09-12T04:45:22;14.90;;;10.60;;
11313;SDS011;5712;48.858;9.206;2023-09-12T04:47:49;15.30;;;10.23;;
11313;SDS011;5712;48.858;9.206;2023-09-12T04:50:16;14.77;;;10.77;;
11313;SDS011;5712;48.858;9.206;2023-09-12T04:52:42;15.20;;;11.00;;
11313;SDS011;5712;48.858;9.206;2023-09-12T04:55:10;14.77;;;10.97;;
11313;SDS011;5712;48.858;9.206;2023-09-12T04:57:36;16.70;;;10.87;;
11313;SDS011;5712;48.858;9.206;2023-09-12T05:00:03;16.00;;;11.33;;
11313;SDS011;5712;48.858;9.206;2023-09-12T05:02:31;15.00;;;10.70;;
11313;SDS011;5712;48.858;9.206;2023-09-12T05:04:57;14.43;;;10.80;;
11313;SDS011;5712;48.858;9.206;2023-09-12T05:07:24;14.03;;;10.83;;
11313;SDS011;5712;48.858;9.206;2023-09-12T05:09:51;15.23;;;11.27;;
11313;SDS011;5712;48.858;9.206;2023-09-12T05:12:18;14.40;;;11.27;;
11313;SDS011;5712;48.858;9.206;2023-09-12T05:14:45;16.10;;;11.53;;
11313;SDS011;5712;48.858;9.206;2023-09-12T05:17:11;15.53;;;10.87;;
11313;SDS011;5712;48.858;9.206;2023-09-12T05:19:38;13.87;;;10.37;;
11313;SDS011;5712;48.858;9.206;2023-09-12T05:22:04;13.13;;;10.80;;
11313;SDS011;5712;48.858;9.206;2023-09-12T05:24:31;14.03;;;10.60;;
11313;SDS011;5712;48.858;9.206;2023-09-12T05:26:57;14.03;;;10.97;;
11313;SDS011;5712;48.858;9.206;2023-09-12T05:29:25;15.27;;;10.93;;
11313;SDS011;5712;48.858;9.206;2023-09-12T05:31:52;15.17;;;10.87;;
11313;SDS011;5712;48.858;9.206;2023-09-12T05:34:18;17.23;;;11.07;;
11313;SDS011;5712;48.858;9.206;2023-09-12T05:36:45;15.17;;;10.60;;
11313;SDS011;5712;48.858;9.206;2023-09-12T05:39:11;13.80;;;10.30;;
11313;SDS011;5712;48.858;9.206;2023-09-12T05:41:39;14.80;;;10.67;;
11313;SDS011;5712;48.858;9.206;2023-09-12T05:44:05;14.33;;;11.17;;
11313;SDS011;5712;48.858;9.206;2023-09-12T05:46:33;13.50;;;10.30;;
11313;SDS011;5712;48.858;9.206;2023-09-12T05:49:00;13.83;;;10.27;;
11313;SDS011;5712;48.858;9.206;2023-09-12T05:51:26;14.43;;;10.17;;
11313;SDS011;5712;48.858;9.206;2023-09-12T05:53:53;15.70;;;10.90;;
11313;SDS011;5712;48.858;9.206;2023-09-12T05:56:20;16.77;;;11.27;;
11313;SDS011;5712;48.858;9.206;2023-09-12T05:58:46;13.57;;;10.20;;
11313;SDS011;5712;48.858;9.206;2023-09-12T06:01:15;14.77;;;10.30;;
11313;SDS011;5712;48.858;9.206;2023-09-12T06:03:43;13.83;;;10.03;;
11313;SDS011;5712;48.858;9.206;2023-09-12T06:06:09;16.73;;;10.80;;
11313;SDS011;5712;48.858;9.206;2023-09-12T06:08:36;13.40;;;9.93;;
11313;SDS011;5712;48.858;9.206;2023-09-12T06:11:03;13.00;;;9.67;;
11313;SDS011;5712;48.858;9.206;2023-09-12T06:13:30;12.70;;;9.93;;
11313;SDS011;5712;48.858;9.206;2023-09-12T06:15:57;13.77;;;10.13;;
11313;SDS011;5712;48.858;9.206;2023-09-12T06:18:24;13.07;;;9.80;;
11313;SDS011;5712;48.858;9.206;2023-09-12T06:20:54;12.47;;;10.20;;
11313;SDS011;5712;48.858;9.206;2023-09-12T06:23:21;12.47;;;9.47;;
11313;SDS011;5712;48.858;9.206;2023-09-12T06:25:48;14.23;;;9.97;;
11313;SDS011;5712;48.858;9.206;2023-09-12T06:28:24;11.97;;;9.97;;
11313;SDS011;5712;48.858;9.206;2023-09-12T06:30:51;13.90;;;9.70;;
11313;SDS011;5712;48.858;9.206;2023-09-12T06:33:17;10.13;;;8.60;;
11313;SDS011;5712;48.858;9.206;2023-09-12T06:35:43;12.53;;;9.93;;
11313;SDS011;5712;48.858;9.206;2023-09-12T06:38:16;12.07;;;8.97;;
11313;SDS011;5712;48.858;9.206;2023-09-12T06:40:42;11.10;;;8.53;;
11313;SDS011;5712;48.858;9.206;2023-09-12T06:43:09;10.55;;;8.95;;
11313;SDS011;5712;48.858;9.206;2023-09-12T06:45:36;9.93;;;8.07;;
11313;SDS011;5712;48.858;9.206;2023-09-12T06:48:03;11.57;;;9.30;;
11313;SDS011;5712;48.858;9.206;2023-09-12T06:50:30;10.37;;;8.20;;
11313;SDS011;5712;48.858;9.206;2023-09-12T06:52:56;11.43;;;9.37;;
11313;SDS011;5712;48.858;9.206;2023-09-12T06:55:24;11.77;;;9.10;;
11313;SDS011;5712;48.858;9.206;2023-09-12T06:57:51;14.40;;;9.90;;
11313;SDS011;5712;48.858;9.206;2023-09-12T07:00:17;12.17;;;9.43;;
11313;SDS011;5712;48.858;9.206;2023-09-12T07:02:45;11.50;;;9.17;;
11313;SDS011;5712;48.858;9.206;2023-09-12T07:05:12;13.37;;;10.47;;
11313;SDS011;5712;48.858;9.206;2023-09-12T07:07:38;11.83;;;9.60;;
11313;SDS011;5712;48.858;9.206;2023-09-12T07:10:05;13.13;;;10.13;;
11313;SDS011;5712;48.858;9.206;2023-09-12T07:12:34;12.63;;;9.73;;
11313;SDS011;5712;48.858;9.206;2023-09-12T07:15:00;14.50;;;10.07;;
11313;SDS011;5712;48.858;9.206;2023-09-12T07:17:27;12.33;;;9.83;;
11313;SDS011;5712;48.858;9.206;2023-09-12T07:19:53;15.87;;;10.97;;
11313;SDS011;5712;48.858;9.206;2023-09-12T07:22:20;11.63;;;9.20;;
11313;SDS011;5712;48.858;9.206;2023-09-12T07:24:46;11.87;;;9.60;;
11313;SDS011;5712;48.858;9.206;2023-09-12T07:27:13;11.07;;;8.70;;
11313;SDS011;5712;48.858;9.206;2023-09-12T07:29:41;12.77;;;9.53;;
11313;SDS011;5712;48.858;9.206;2023-09-12T07:32:07;11.47;;;10.03;;
11313;SDS011;5712;48.858;9.206;2023-09-12T07:34:34;10.83;;;9.00;;
11313;SDS011;5712;48.858;9.206;2023-09-12T07:37:00;12.37;;;9.47;;
11313;SDS011;5712;48.858;9.206;2023-09-12T07:39:28;10.83;;;9.63;;
11313;SDS011;5712;48.858;9.206;2023-09-12T07:41:54;12.97;;;10.10;;
11313;SDS011;5712;48.858;9.206;2023-09-12T07:44:21;10.67;;;9.30;;
11313;SDS011;5712;48.858;9.206;2023-09-12T07:46:49;12.90;;;9.90;;
11313;SDS011;5712;48.858;9.206;2023-09-12T07:49:15;11.53;;;9.40;;
11313;SDS011;5712;48.858;9.206;2023-09-12T07:51:42;13.43;;;9.60;;
11313;SDS011;5712;48.858;9.206;2023-09-12T07:54:08;13.10;;;9.60;;
11313;SDS011;5712;48.858;9.206;2023-09-12T07:56:35;13.20;;;9.67;;
11313;SDS011;5712;48.858;9.206;2023-09-12T07:59:01;13.20;;;9.33;;
11313;SDS011;5712;48.858;9.206;2023-09-12T08:01:28;12.33;;;9.53;;
11313;SDS011;5712;48.858;9.206;2023-09-12T08:03:56;11.95;;;10.15;;
11313;SDS011;5712;48.858;9.206;2023-09-12T08:06:22;13.03;;;8.90;;
11313;SDS011;5712;48.858;9.206;2023-09-12T08:08:50;10.63;;;9.17;;
11313;SDS011;5712;48.858;9.206;2023-09-12T08:11:16;11.20;;;8.67;;
11313;SDS011;5712;48.858;9.206;2023-09-12T08:13:45;9.90;;;8.83;;
11313;SDS011;5712;48.858;9.206;2023-09-12T08:16:14;12.13;;;9.27;;
11313;SDS011;5712;48.858;9.206;2023-09-12T08:18:41;9.83;;;8.33;;
11313;SDS011;5712;48.858;9.206;2023-09-12T08:21:09;10.87;;;8.57;;
11313;SDS011;5712;48.858;9.206;2023-09-12T08:23:36;10.53;;;9.07;;
11313;SDS011;5712;48.858;9.206;2023-09-12T08:26:03;10.60;;;8.60;;
11313;SDS011;5712;48.858;9.206;2023-09-12T08:28:29;10.57;;;8.27;;
11313;SDS011;5712;48.858;9.206;2023-09-12T08:30:56;9.00;;;8.10;;
11313;SDS011;5712;48.858;9.206;2023-09-12T08:33:22;9.07;;;8.10;;
11313;SDS011;5712;48.858;9.206;2023-09-12T08:35:49;9.67;;;8.67;;
11313;SDS011;5712;48.858;9.206;2023-09-12T08:38:17;10.30;;;8.00;;
11313;SDS011;5712;48.858;9.206;2023-09-12T08:40:47;9.90;;;8.40;;
11313;SDS011;5712;48.858;9.206;2023-09-12T08:43:14;9.53;;;7.83;;
11313;SDS011;5712;48.858;9.206;2023-09-12T08:45:41;10.37;;;8.50;;
11313;SDS011;5712;48.858;9.206;2023-09-12T08:48:09;9.17;;;8.17;;
11313;SDS011;5712;48.858;9.206;2023-09-12T08:50:37;11.80;;;7.73;;
11313;SDS011;5712;48.858;9.206;2023-09-12T08:53:04;8.97;;;8.07;;
11313;SDS011;5712;48.858;9.206;2023-09-12T08:55:32;10.00;;;8.47;;
11313;SDS011;5712;48.858;9.206;2023-09-12T08:58:00;10.57;;;9.00;;
11313;SDS011;5712;48.858;9.206;2023-09-12T09:00:28;9.90;;;8.17;;
11313;SDS011;5712;48.858;9.206;2023-09-12T09:02:55;10.03;;;8.40;;
11313;SDS011;5712;48.858;9.206;2023-09-12T09:05:22;11.40;;;9.15;;
11313;SDS011;5712;48.858;9.206;2023-09-12T09:07:50;10.40;;;8.07;;
11313;SDS011;5712;48.858;9.206;2023-09-12T09:10:18;10.47;;;8.27;;
11313;SDS011;5712;48.858;9.206;2023-09-12T09:12:47;11.03;;;8.00;;
11313;SDS011;5712;48.858;9.206;2023-09-12T09:15:19;9.90;;;8.33;;
11313;SDS011;5712;48.858;9.206;2023-09-12T09:17:47;10.10;;;8.40;;
11313;SDS011;5712;48.858;9.206;2023-09-12T09:20:21;10.10;;;7.80;;
11313;SDS011;5712;48.858;9.206;2023-09-12T09:22:55;12.60;;;8.60;;
11313;SDS011;5712;48.858;9.206;2023-09-12T09:25:25;9.95;;;8.77;;
11313;SDS011;5712;48.858;9.206;2023-09-12T09:27:54;10.30;;;8.13;;
11313;SDS011;5712;48.858;9.206;2023-09-12T09:30:28;10.02;;;8.38;;
11313;SDS011;5712;48.858;9.206;2023-09-12T09:35:41;9.10;;;7.97;;
11313;SDS011;5712;48.858;9.206;2023-09-12T09:38:08;8.67;;;7.70;;
11313;SDS011;5712;48.858;9.206;2023-09-12T09:43:53;9.07;;;7.63;;
11313;SDS011;5712;48.858;9.206;2023-09-12T09:46:19;10.38;;;7.97;;
11313;SDS011;5712;48.858;9.206;2023-09-12T09:48:48;10.55;;;8.20;;
11313;SDS011;5712;48.858;9.206;2023-09-12T09:51:15;9.18;;;7.80;;
11313;SDS011;5712;48.858;9.206;2023-09-12T09:53:42;9.93;;;6.90;;
11313;SDS011;5712;48.858;9.206;2023-09-12T09:56:09;9.23;;;7.40;;
11313;SDS011;5712;48.858;9.206;2023-09-12T09:58:42;7.40;;;6.70;;
11313;SDS011;5712;48.858;9.206;2023-09-12T10:01:15;11.95;;;7.10;;
11313;SDS011;5712;48.858;9.206;2023-09-12T10:03:44;8.45;;;7.47;;
11313;SDS011;5712;48.858;9.206;2023-09-12T10:06:12;10.10;;;7.88;;
11313;SDS011;5712;48.858;9.206;2023-09-12T10:08:40;9.50;;;7.38;;
11313;SDS011;5712;48.858;9.206;2023-09-12T10:11:09;8.77;;;7.00;;
11313;SDS011;5712;48.858;9.206;2023-09-12T10:13:36;7.78;;;6.95;;
11313;SDS011;5712;48.858;9.206;2023-09-12T10:16:07;10.25;;;7.22;;
11313;SDS011;5712;48.858;9.206;2023-09-12T10:18:35;8.95;;;7.40;;
11313;SDS011;5712;48.858;9.206;2023-09-12T10:21:12;7.20;;;6.45;;
11313;SDS011;5712;48.858;9.206;2023-09-12T10:23:45;9.02;;;7.32;;
11313;SDS011;5712;48.858;9.206;2023-09-12T10:26:17;10.15;;;7.45;;
11313;SDS011;5712;48.858;9.206;2023-09-12T10:28:43;8.60;;;7.18;;
11313;SDS011;5712;48.858;9.206;2023-09-12T10:31:12;8.65;;;6.90;;
11313;SDS011;5712;48.858;9.206;2023-09-12T10:33:42;7.82;;;6.68;;
11313;SDS011;5712;48.858;9.206;2023-09-12T10:36:10;10.25;;;7.20;;
11313;SDS011;5712;48.858;9.206;2023-09-12T10:38:40;10.10;;;7.00;;
11313;SDS011;5712;48.858;9.206;2023-09-12T10:41:08;6.90;;;6.20;;
11313;SDS011;5712;48.858;9.206;2023-09-12T10:43:37;9.55;;;6.53;;
11313;SDS011;5712;48.858;9.206;2023-09-12T10:46:06;7.72;;;6.40;;
11313;SDS011;5712;48.858;9.206;2023-09-12T10:48:32;8.23;;;7.43;;
11313;SDS011;5712;48.858;9.206;2023-09-12T10:51:02;8.25;;;6.68;;
11313;SDS011;5712;48.858;9.206;2023-09-12T10:53:30;7.88;;;7.07;;
11313;SDS011;5712;48.858;9.206;2023-09-12T10:55:58;7.20;;;6.43;;
11313;SDS011;5712;48.858;9.206;2023-09-12T10:58:26;11.50;;;6.95;;
11313;SDS011;5712;48.858;9.206;2023-09-12T11:03:48;7.80;;;6.28;;
11313;SDS011;5712;48.858;9.206;2023-09-12T11:06:28;7.30;;;6.53;;
11313;SDS011;5712;48.858;9.206;2023-09-12T11:11:45;7.93;;;6.75;;
11313;SDS011;5712;48.858;9.206;2023-09-12T11:14:13;9.13;;;6.45;;
11313;SDS011;5712;48.858;9.206;2023-09-12T11:16:51;7.32;;;6.63;;
11313;SDS011;5712;48.858;9.206;2023-09-12T11:19:50;8.48;;;6.43;;
11313;SDS011;5712;48.858;9.206;2023-09-12T11:22:24;6.80;;;6.10;;
11313;SDS011;5712;48.858;9.206;2023-09-12T11:24:51;6.88;;;6.10;;
11313;SDS011;5712;48.858;9.206;2023-09-12T11:27:20;8.02;;;6.72;;
11313;SDS011;5712;48.858;9.206;2023-09-12T11:29:47;7.38;;;6.25;;
11313;SDS011;5712;48.858;9.206;2023-09-12T11:32:26;7.43;;;6.60;;
11313;SDS011;5712;48.858;9.206;2023-09-12T11:34:56;7.85;;;6.75;;
11313;SDS011;5712;48.858;9.206;2023-09-12T11:37:23;7.07;;;6.30;;
11313;SDS011;5712;48.858;9.206;2023-09-12T11:39:50;6.80;;;6.10;;
11313;SDS011;5712;48.858;9.206;2023-09-12T11:42:20;6.90;;;6.20;;
11313;SDS011;5712;48.858;9.206;2023-09-12T11:44:50;7.35;;;6.13;;
11313;SDS011;5712;48.858;9.206;2023-09-12T11:47:20;8.18;;;6.25;;
11313;SDS011;5712;48.858;9.206;2023-09-12T11:49:50;7.22;;;6.50;;
11313;SDS011;5712;48.858;9.206;2023-09-12T11:52:17;8.85;;;7.07;;
11313;SDS011;5712;48.858;9.206;2023-09-12T11:54:45;7.65;;;6.45;;
11313;SDS011;5712;48.858;9.206;2023-09-12T11:57:12;7.78;;;6.03;;
11313;SDS011;5712;48.858;9.206;2023-09-12T11:59:40;7.55;;;5.80;;
11313;SDS011;5712;48.858;9.206;2023-09-12T12:02:10;8.23;;;6.47;;
11313;SDS011;5712;48.858;9.206;2023-09-12T12:04:37;7.47;;;6.25;;
11313;SDS011;5712;48.858;9.206;2023-09-12T12:07:06;15.15;;;6.72;;
11313;SDS011;5712;48.858;9.206;2023-09-12T12:09:33;7.05;;;6.18;;
11313;SDS011;5712;48.858;9.206;2023-09-12T12:12:04;7.93;;;6.13;;
11313;SDS011;5712;48.858;9.206;2023-09-12T12:14:35;6.75;;;5.95;;
11313;SDS011;5712;48.858;9.206;2023-09-12T12:17:05;7.40;;;6.13;;
11313;SDS011;5712;48.858;9.206;2023-09-12T12:19:32;7.30;;;6.38;;
11313;SDS011;5712;48.858;9.206;2023-09-12T12:21:59;6.90;;;6.15;;
11313;SDS011;5712;48.858;9.206;2023-09-12T12:24:35;7.63;;;6.25;;
11313;SDS011;5712;48.858;9.206;2023-09-12T12:27:03;7.40;;;6.03;;
11313;SDS011;5712;48.858;9.206;2023-09-12T12:29:30;7.60;;;5.90;;
11313;SDS011;5712;48.858;9.206;2023-09-12T12:31:59;8.30;;;5.82;;
11313;SDS011;5712;48.858;9.206;2023-09-12T12:34:25;7.43;;;6.10;;
11313;SDS011;5712;48.858;9.206;2023-09-12T12:36:53;6.82;;;5.65;;
11313;SDS011;5712;48.858;9.206;2023-09-12T12:39:20;6.30;;;5.55;;
11313;SDS011;5712;48.858;9.206;2023-09-12T12:41:48;7.72;;;6.22;;
11313;SDS011;5712;48.858;9.206;2023-09-12T12:44:17;6.32;;;5.10;;
11313;SDS011;5712;48.858;9.206;2023-09-12T12:46:47;6.35;;;5.75;;
11313;SDS011;5712;48.858;9.206;2023-09-12T12:49:15;8.20;;;6.30;;
11313;SDS011;5712;48.858;9.206;2023-09-12T12:51:41;8.95;;;6.60;;
11313;SDS011;5712;48.858;9.206;2023-09-12T12:54:09;8.45;;;5.75;;
11313;SDS011;5712;48.858;9.206;2023-09-12T12:56:35;7.22;;;6.43;;
11313;SDS011;5712;48.858;9.206;2023-09-12T12:59:04;7.90;;;6.20;;
11313;SDS011;5712;48.858;9.206;2023-09-12T13:01:33;7.63;;;6.20;;
11313;SDS011;5712;48.858;9.206;2023-09-12T13:04:00;7.55;;;6.25;;
11313;SDS011;5712;48.858;9.206;2023-09-12T13:06:27;6.95;;;6.25;;
11313;SDS011;5712;48.858;9.206;2023-09-12T13:08:55;7.20;;;6.45;;
11313;SDS011;5712;48.858;9.206;2023-09-12T13:11:22;7.53;;;6.13;;
11313;SDS011;5712;48.858;9.206;2023-09-12T13:13:49;7.15;;;6.45;;
11313;SDS011;5712;48.858;9.206;2023-09-12T13:16:17;7.97;;;6.35;;
11313;SDS011;5712;48.858;9.206;2023-09-12T13:18:43;8.55;;;6.28;;
11313;SDS011;5712;48.858;9.206;2023-09-12T13:21:10;6.90;;;6.07;;
11313;SDS011;5712;48.858;9.206;2023-09-12T13:23:37;7.13;;;6.15;;
11313;SDS011;5712;48.858;9.206;2023-09-12T13:26:06;7.90;;;6.38;;
11313;SDS011;5712;48.858;9.206;2023-09-12T13:28:33;8.70;;;6.82;;
11313;SDS011;5712;48.858;9.206;2023-09-12T13:30:59;8.57;;;6.55;;
11313;SDS011;5712;48.858;9.206;2023-09-12T13:33:27;7.10;;;6.40;;
11313;SDS011;5712;48.858;9.206;2023-09-12T13:35:54;8.50;;;6.07;;
11313;SDS011;5712;48.858;9.206;2023-09-12T13:38:20;6.90;;;6.07;;
11313;SDS011;5712;48.858;9.206;2023-09-12T13:40:48;8.18;;;6.70;;
11313;SDS011;5712;48.858;9.206;2023-09-12T13:43:15;10.10;;;6.90;;
11313;SDS011;5712;48.858;9.206;2023-09-12T13:45:41;7.72;;;6.68;;
11313;SDS011;5712;48.858;9.206;2023-09-12T13:48:08;10.30;;;6.63;;
11313;SDS011;5712;48.858;9.206;2023-09-12T13:50:36;8.13;;;6.60;;
11313;SDS011;5712;48.858;9.206;2023-09-12T13:53:02;7.97;;;6.07;;
11313;SDS011;5712;48.858;9.206;2023-09-12T13:55:31;7.40;;;6.47;;
11313;SDS011;5712;48.858;9.206;2023-09-12T13:57:58;8.57;;;6.30;;
11313;SDS011;5712;48.858;9.206;2023-09-12T14:00:25;7.15;;;6.45;;
11313;SDS011;5712;48.858;9.206;2023-09-12T14:02:51;7.63;;;6.43;;
11313;SDS011;5712;48.858;9.206;2023-09-12T14:05:17;7.00;;;6.10;;
11313;SDS011;5712;48.858;9.206;2023-09-12T14:07:45;9.13;;;6.32;;
11313;SDS011;5712;48.858;9.206;2023-09-12T14:10:12;10.00;;;6.65;;
11313;SDS011;5712;48.858;9.206;2023-09-12T14:12:39;9.65;;;6.55;;
11313;SDS011;5712;48.858;9.206;2023-09-12T14:15:06;9.02;;;6.68;;
11313;SDS011;5712;48.858;9.206;2023-09-12T14:17:33;7.50;;;6.25;;
11313;SDS011;5712;48.858;9.206;2023-09-12T14:20:00;7.95;;;6.53;;
11313;SDS011;5712;48.858;9.206;2023-09-12T14:22:26;7.80;;;6.45;;
11313;SDS011;5712;48.858;9.206;2023-09-12T14:24:55;7.75;;;6.40;;
11313;SDS011;5712;48.858;9.206;2023-09-12T14:27:22;8.35;;;6.57;;
11313;SDS011;5712;48.858;9.206;2023-09-12T14:29:48;8.15;;;6.68;;
11313;SDS011;5712;48.858;9.206;2023-09-12T14:32:16;7.22;;;6.53;;
11313;SDS011;5712;48.858;9.206;2023-09-12T14:34:42;9.07;;;7.68;;
11313;SDS011;5712;48.858;9.206;2023-09-12T14:37:10;7.47;;;6.68;;
11313;SDS011;5712;48.858;9.206;2023-09-12T14:39:36;7.45;;;6.32;;
11313;SDS011;5712;48.858;9.206;2023-09-12T14:42:05;7.63;;;6.28;;
11313;SDS011;5712;48.858;9.206;2023-09-12T14:44:33;7.60;;;6.38;;
11313;SDS011;5712;48.858;9.206;2023-09-12T14:47:00;8.50;;;6.70;;
11313;SDS011;5712;48.858;9.206;2023-09-12T14:49:29;6.88;;;6.10;;
11313;SDS011;5712;48.858;9.206;2023-09-12T14:51:55;8.93;;;6.53;;
11313;SDS011;5712;48.858;9.206;2023-09-12T14:54:22;7.28;;;6.40;;
11313;SDS011;5712;48.858;9.206;2023-09-12T14:56:48;7.07;;;6.38;;
11313;SDS011;5712;48.858;9.206;2023-09-12T14:59:17;8.00;;;6.65;;
11313;SDS011;5712;48.858;9.206;2023-09-12T15:01:44;9.52;;;6.85;;
11313;SDS011;5712;48.858;9.206;2023-09-12T15:04:10;7.40;;;6.22;;